Time;durP1;ratioP1;P1;durP2;ratioP2;P2;SDS_P1;SDS_P2;PMS_P1;PMS_P2;Temp;Humidity;BMP_temperature;BMP_pressure;BME280_temperature;BME280_humidity;BME280_pressure;Samples;Min_cycle;Max_cycle;Signal;HPM_P1;HPM_P2
2021/06/07 00:01:51;;;;;;;4.68;1.63;;;;;;;14.06;67.28;101777.09;4881319;29;20080;-75
2021/06/07 00:04:18;;;;;;;8.00;2.08;;;;;;;14.01;67.19;101784.47;4899487;29;20032;-75
2021/06/07 00:06:45;;;;;;;4.35;1.55;;;;;;;14.02;66.99;101776.94;4897610;29;20155;-74
2021/06/07 00:09:15;;;;;;;3.50;1.65;;;;;;;14.00;67.29;101770.91;4897857;29;20033;-75
2021/06/07 00:11:45;;;;;;;4.97;1.48;;;;;;;13.98;67.38;101779.59;4883263;29;20044;-75
2021/06/07 00:14:14;;;;;;;4.72;2.13;;;;;;;13.94;67.34;101778.66;4897787;29;20045;-75
2021/06/07 00:16:41;;;;;;;6.32;1.50;;;;;;;13.93;67.36;101776.19;4897256;29;20045;-75
2021/06/07 00:19:11;;;;;;;3.67;1.15;;;;;;;13.91;67.24;101781.31;4898100;29;20441;-74
2021/06/07 00:21:38;;;;;;;3.22;1.70;;;;;;;13.92;67.19;101785.72;4897088;29;20401;-76
2021/06/07 00:24:06;;;;;;;8.13;1.83;;;;;;;13.88;67.06;101779.22;4898143;29;20049;-75
2021/06/07 00:26:33;;;;;;;3.75;1.80;;;;;;;13.85;67.13;101774.31;4880914;29;20131;-74
2021/06/07 00:29:00;;;;;;;4.28;1.73;;;;;;;13.83;67.46;101774.69;4899688;29;20052;-75
2021/06/07 00:31:27;;;;;;;4.38;1.40;;;;;;;13.84;67.37;101778.28;4897222;29;20127;-75
2021/06/07 00:33:55;;;;;;;4.35;1.60;;;;;;;13.83;67.24;101763.53;4897494;29;20115;-75
2021/06/07 00:36:22;;;;;;;2.78;1.70;;;;;;;13.82;67.32;101764.69;4897373;29;20104;-75
2021/06/07 00:38:50;;;;;;;7.78;1.88;;;;;;;13.74;67.57;101757.22;4897138;29;20037;-75
2021/06/07 00:41:18;;;;;;;5.60;1.80;;;;;;;13.71;67.38;101752.38;4896282;29;20065;-75
2021/06/07 00:43:46;;;;;;;3.03;1.50;;;;;;;13.69;67.58;101763.00;4897227;29;20492;-75
2021/06/07 00:46:13;;;;;;;2.40;1.38;;;;;;;13.64;67.48;101763.22;4896304;29;20064;-75
2021/06/07 00:48:40;;;;;;;5.40;1.73;;;;;;;13.62;67.58;101762.75;4880155;29;20128;-75
2021/06/07 00:51:10;;;;;;;5.32;1.45;;;;;;;13.59;67.59;101757.88;4896878;29;20041;-75
2021/06/07 00:53:38;;;;;;;4.80;1.40;;;;;;;13.61;67.38;101751.97;4879974;29;20044;-75
2021/06/07 00:56:09;;;;;;;2.28;1.40;;;;;;;13.54;67.48;101749.72;4903384;29;20044;-76
2021/06/07 00:58:41;;;;;;;3.20;1.23;;;;;;;13.51;67.68;101744.03;4910813;29;20040;-75
2021/06/07 01:01:11;;;;;;;3.55;1.67;;;;;;;13.48;67.65;101742.75;4904220;29;20049;-75
2021/06/07 01:03:40;;;;;;;6.70;1.35;;;;;;;13.50;67.54;101745.19;4900132;29;20064;-75
2021/06/07 01:06:08;;;;;;;3.42;1.20;;;;;;;13.48;67.70;101737.19;4896706;29;20131;-75
2021/06/07 01:08:35;;;;;;;5.45;1.65;;;;;;;13.47;67.74;101738.34;4896620;29;20036;-75
2021/06/07 01:11:03;;;;;;;2.60;1.27;;;;;;;13.46;67.86;101744.25;4896673;29;20898;-76
2021/06/07 01:13:30;;;;;;;5.03;1.70;;;;;;;13.50;67.94;101734.06;4881623;29;20045;-74
2021/06/07 01:15:58;;;;;;;3.63;1.80;;;;;;;13.53;67.88;101739.75;4896626;29;20040;-75
2021/06/07 01:18:27;;;;;;;3.58;1.52;;;;;;;13.53;68.34;101739.75;4896505;29;20131;-76
2021/06/07 01:20:57;;;;;;;3.53;1.77;;;;;;;13.54;67.96;101741.38;4896330;29;20044;-75
2021/06/07 01:23:23;;;;;;;4.07;1.48;;;;;;;13.56;68.04;101736.28;4897072;29;20048;-75
2021/06/07 01:25:50;;;;;;;4.32;1.67;;;;;;;13.55;68.21;101736.66;4895739;29;20732;-75
2021/06/07 01:28:18;;;;;;;6.18;2.00;;;;;;;13.53;67.88;101739.75;4887405;29;20127;-75
2021/06/07 01:30:49;;;;;;;3.80;1.60;;;;;;;13.53;68.45;101739.75;4897717;29;20500;-74
2021/06/07 01:33:19;;;;;;;4.00;2.47;;;;;;;13.56;68.30;101736.28;4896670;29;20052;-75
2021/06/07 01:35:47;;;;;;;3.35;1.60;;;;;;;13.56;68.53;101735.47;4889272;29;20048;-75
2021/06/07 01:38:15;;;;;;;2.42;1.70;;;;;;;13.59;68.45;101743.13;4879388;29;20065;-75
2021/06/07 01:40:54;;;;;;;;;;;;;;;13.61;68.09;101727.72;4896545;29;20515;-75
2021/06/07 01:43:21;;;;;;;4.10;1.90;;;;;;;13.65;67.81;101736.22;4895771;29;19991;-76
2021/06/07 01:45:49;;;;;;;5.72;1.92;;;;;;;13.61;67.85;101735.28;4896373;29;20049;-75
2021/06/07 01:48:18;;;;;;;4.53;2.10;;;;;;;13.55;68.07;101731.91;4890202;29;20045;-76
2021/06/07 01:50:46;;;;;;;7.43;2.42;;;;;;;13.52;68.39;101723.41;4895065;29;20114;-75
2021/06/07 01:53:15;;;;;;;4.28;2.10;;;;;;;13.49;68.43;101727.69;4894275;29;20488;-74
2021/06/07 01:55:45;;;;;;;4.30;1.65;;;;;;;13.39;68.63;101722.56;4900145;29;20084;-74
2021/06/07 01:58:14;;;;;;;5.03;2.35;;;;;;;13.31;68.85;101715.91;4902342;29;20056;-75
2021/06/07 02:00:46;;;;;;;4.57;2.10;;;;;;;13.25;69.00;101719.22;4904326;29;20080;-75
2021/06/07 02:03:16;;;;;;;5.70;2.50;;;;;;;13.22;69.15;101714.34;4900587;29;20036;-75
2021/06/07 02:05:46;;;;;;;4.28;1.70;;;;;;;13.19;69.26;101713.03;4896356;29;20429;-75
2021/06/07 02:08:15;;;;;;;5.43;1.80;;;;;;;13.16;69.19;101719.28;4895149;29;20096;-76
2021/06/07 02:10:55;;;;;;;4.88;2.53;;;;;;;13.13;69.50;101702.47;4895933;29;20068;-75
2021/06/07 02:13:23;;;;;;;5.65;3.38;;;;;;;13.14;69.16;101709.66;4895606;29;20153;-75
2021/06/07 02:15:53;;;;;;;6.55;2.50;;;;;;;13.11;69.26;101708.38;4894507;29;20127;-76
2021/06/07 02:18:20;;;;;;;5.60;1.88;;;;;;;13.13;69.44;101716.38;4894919;29;20044;-75
2021/06/07 02:20:47;;;;;;;6.65;2.35;;;;;;;13.12;69.35;101718.34;4894259;29;20077;-74
2021/06/07 02:23:14;;;;;;;7.93;2.08;;;;;;;13.10;69.21;101706.75;4896876;29;20115;-75
2021/06/07 02:25:41;;;;;;;2.42;1.67;;;;;;;13.11;69.29;101721.44;4896002;29;20048;-75
2021/06/07 02:28:17;;;;;;;3.65;2.10;;;;;;;13.14;69.35;101713.25;4895638;29;20101;-75
2021/06/07 02:30:46;;;;;;;7.40;3.20;;;;;;;13.11;69.39;101707.53;4896249;29;20040;-76
2021/06/07 02:33:13;;;;;;;5.07;1.98;;;;;;;13.09;69.55;101705.13;4895942;29;20076;-75
2021/06/07 02:35:40;;;;;;;4.97;1.50;;;;;;;13.12;69.46;101711.97;4894404;29;20104;-75
2021/06/07 02:38:08;;;;;;;5.80;1.73;;;;;;;13.09;69.74;101713.47;4894979;29;20107;-76
2021/06/07 02:40:36;;;;;;;5.55;2.15;;;;;;;13.12;69.69;101703.63;4895944;29;20044;-76
2021/06/07 02:43:05;;;;;;;6.72;1.70;;;;;;;13.15;69.66;101705.72;4895444;29;20049;-75
2021/06/07 02:45:33;;;;;;;3.03;1.90;;;;;;;13.12;69.66;101712.78;4896067;29;20075;-76
2021/06/07 02:48:01;;;;;;;4.15;1.73;;;;;;;13.09;69.92;101707.09;4894453;29;20124;-75
2021/06/07 02:50:31;;;;;;;3.75;1.70;;;;;;;13.10;69.92;101709.53;4895919;29;20048;-76
2021/06/07 02:52:58;;;;;;;4.03;1.55;;;;;;;13.11;69.58;101716.72;4895406;29;20466;-75
2021/06/07 02:55:34;;;;;;;4.00;1.90;;;;;;;13.12;69.81;101700.84;4896972;29;20105;-76
2021/06/07 02:58:01;;;;;;;4.85;1.75;;;;;;;13.15;69.78;101703.78;4894885;29;20064;-75
2021/06/07 03:00:50;;;;;;;5.13;1.77;;;;;;;13.18;70.08;101696.72;4902734;29;20045;-75
2021/06/07 03:03:17;;;;;;;8.63;1.83;;;;;;;13.18;69.60;101702.28;4882561;29;20143;-75
2021/06/07 03:05:46;;;;;;;4.97;1.70;;;;;;;13.16;69.82;101690.66;4899194;29;20040;-75
2021/06/07 03:08:15;;;;;;;5.38;1.90;;;;;;;13.13;69.75;101692.16;4898529;29;20045;-75
2021/06/07 03:10:46;;;;;;;2.85;1.90;;;;;;;13.18;69.88;101694.75;4899249;29;20115;-76
2021/06/07 03:13:13;;;;;;;4.20;1.88;;;;;;;13.21;69.51;101688.50;4899614;29;20609;-75
2021/06/07 03:15:40;;;;;;;4.88;1.83;;;;;;;13.20;69.39;101698.00;4898947;29;20112;-75
2021/06/07 03:18:07;;;;;;;5.10;1.95;;;;;;;13.20;69.38;101686.88;4898994;29;20079;-75
2021/06/07 03:20:36;;;;;;;3.90;1.52;;;;;;;13.20;69.36;101692.44;4898542;29;20028;-75
2021/06/07 03:23:07;;;;;;;10.80;4.68;;;;;;;13.16;69.38;101693.44;4900310;29;20131;-75
2021/06/07 03:25:38;;;;;;;3.88;1.52;;;;;;;13.13;69.72;101691.38;4899058;29;20075;-75
2021/06/07 03:28:07;;;;;;;3.00;1.90;;;;;;;13.12;69.82;101695.28;4898515;29;20057;-75
2021/06/07 03:30:34;;;;;;;2.70;1.90;;;;;;;13.12;70.03;101689.72;4897902;29;20161;-75
2021/06/07 03:33:03;;;;;;;4.90;2.10;;;;;;;13.10;70.04;101697.59;4898300;29;20501;-74
2021/06/07 03:35:32;;;;;;;4.00;1.80;;;;;;;13.07;70.31;101692.72;4898995;29;20052;-75
2021/06/07 03:37:59;;;;;;;6.30;1.85;;;;;;;13.09;70.30;101684.84;4898395;29;20045;-76
2021/06/07 03:40:29;;;;;;;3.50;1.80;;;;;;;13.12;70.29;101684.16;4898771;29;20075;-75
2021/06/07 03:42:57;;;;;;;5.80;2.10;;;;;;;13.11;70.41;101682.53;4897696;29;20052;-76
2021/06/07 03:45:25;;;;;;;3.53;2.40;;;;;;;13.15;70.33;101684.31;4898473;29;20048;-75
2021/06/07 03:47:52;;;;;;;5.10;1.95;;;;;;;13.20;70.36;101677.72;4898470;29;20041;-76
2021/06/07 03:50:21;;;;;;;3.78;1.67;;;;;;;13.21;70.26;101682.94;4881248;29;20051;-75
2021/06/07 03:52:48;;;;;;;6.07;2.30;;;;;;;13.23;70.21;101675.09;4880994;29;20048;-74
2021/06/07 03:55:18;;;;;;;3.05;1.80;;;;;;;13.24;70.27;101673.09;4899604;29;20052;-75
2021/06/07 03:57:45;;;;;;;5.15;2.05;;;;;;;13.24;70.37;101675.88;4904732;29;20508;-75
2021/06/07 04:00:16;;;;;;;5.70;2.47;;;;;;;13.19;70.85;101664.97;4905102;29;20053;-75
2021/06/07 04:02:44;;;;;;;5.97;2.90;;;;;;;13.18;70.75;101666.13;4893322;29;20048;-76
2021/06/07 04:05:12;;;;;;;5.75;2.83;;;;;;;13.14;70.79;101662.38;4897728;29;20044;-76
2021/06/07 04:07:39;;;;;;;6.95;4.03;;;;;;;13.15;70.98;101661.25;4897160;29;20055;-75
2021/06/07 04:10:10;;;;;;;5.80;3.20;;;;;;;13.14;70.96;101654.03;4897548;29;20467;-75
2021/06/07 04:12:37;;;;;;;5.80;3.25;;;;;;;13.11;71.14;101655.53;4902945;29;20059;-75
2021/06/07 04:15:07;;;;;;;6.75;2.75;;;;;;;13.12;71.49;101659.13;4897059;29;20099;-75
2021/06/07 04:17:35;;;;;;;4.30;2.92;;;;;;;13.13;71.41;101652.44;4897737;29;20055;-75
2021/06/07 04:20:05;;;;;;;9.07;3.20;;;;;;;13.12;71.58;101650.81;4896646;29;20496;-75
2021/06/07 04:22:31;;;;;;;6.90;2.47;;;;;;;13.15;71.61;101644.56;4899423;29;20153;-75
2021/06/07 04:24:58;;;;;;;5.60;3.20;;;;;;;13.14;71.78;101640.16;4897271;29;20453;-75
2021/06/07 04:27:25;;;;;;;6.15;2.83;;;;;;;13.16;71.86;101643.38;4897694;29;20129;-75
2021/06/07 04:29:52;;;;;;;7.68;3.30;;;;;;;13.17;71.73;101636.69;4906757;29;20040;-75
2021/06/07 04:32:19;;;;;;;6.05;3.17;;;;;;;13.16;72.03;101646.16;4900405;29;20416;-75
2021/06/07 04:34:46;;;;;;;7.25;4.07;;;;;;;13.16;72.12;101640.59;4897396;29;20051;-75
2021/06/07 04:37:13;;;;;;;8.18;3.88;;;;;;;13.14;72.48;101642.91;4896928;29;20055;-74
2021/06/07 04:39:40;;;;;;;5.63;3.35;;;;;;;13.11;72.22;101647.19;4897167;29;20419;-75
2021/06/07 04:42:07;;;;;;;8.20;4.30;;;;;;;13.09;72.44;101643.13;4897474;29;20048;-75
2021/06/07 04:44:35;;;;;;;4.72;3.33;;;;;;;13.08;72.80;101636.75;4897116;29;20049;-75
2021/06/07 04:47:02;;;;;;;8.38;3.75;;;;;;;13.08;73.02;101628.41;4885999;29;20148;-74
2021/06/07 04:49:29;;;;;;;5.32;3.60;;;;;;;13.09;73.02;101638.41;4896961;29;20049;-75
2021/06/07 04:51:55;;;;;;;8.07;3.00;;;;;;;13.12;72.95;101642.47;4896977;29;20040;-75
2021/06/07 04:54:22;;;;;;;6.95;3.40;;;;;;;13.14;73.14;101648.47;4894452;29;20071;-74
2021/06/07 04:56:49;;;;;;;6.55;3.42;;;;;;;13.15;73.23;101641.78;4880084;29;20392;-75
2021/06/07 04:59:15;;;;;;;7.07;3.53;;;;;;;13.19;73.12;101651.06;4897190;29;20049;-75
2021/06/07 05:01:44;;;;;;;5.05;2.53;;;;;;;13.21;73.27;101660.69;4896633;29;20072;-75
2021/06/07 05:04:12;;;;;;;7.80;3.65;;;;;;;13.24;73.21;101654.44;4903035;29;20112;-75
2021/06/07 05:06:38;;;;;;;7.75;3.00;;;;;;;13.26;73.30;101654.91;4895925;29;20493;-74
2021/06/07 05:09:05;;;;;;;6.70;4.53;;;;;;;13.31;73.35;101657.50;4895251;29;20123;-75
2021/06/07 05:11:32;;;;;;;5.28;2.88;;;;;;;13.33;73.31;101668.28;4896836;29;20481;-75
2021/06/07 05:13:59;;;;;;;7.07;3.03;;;;;;;13.36;73.53;101664.81;4896621;29;20047;-74
2021/06/07 05:16:26;;;;;;;4.40;2.63;;;;;;;13.43;73.12;101663.09;4897079;29;20089;-75
2021/06/07 05:18:53;;;;;;;6.82;3.03;;;;;;;13.44;73.10;101663.91;4882700;29;20076;-75
2021/06/07 05:21:20;;;;;;;5.13;3.47;;;;;;;13.49;73.07;101660.91;4896630;29;20059;-74
2021/06/07 05:23:48;;;;;;;11.60;3.47;;;;;;;13.52;73.23;101665.00;4897672;29;20063;-75
2021/06/07 05:26:15;;;;;;;7.10;3.13;;;;;;;13.53;73.09;101661.84;4896689;29;20049;-75
2021/06/07 05:28:42;;;;;;;10.77;3.72;;;;;;;13.54;73.38;101666.28;4896503;29;20123;-75
2021/06/07 05:31:09;;;;;;;8.68;3.42;;;;;;;13.59;73.42;101665.22;4864094;29;20099;-74
2021/06/07 05:33:36;;;;;;;8.55;4.47;;;;;;;13.65;73.39;101661.09;4896019;29;20136;-75
2021/06/07 05:36:03;;;;;;;5.88;3.13;;;;;;;13.70;73.38;101660.88;4895451;29;20449;-75
2021/06/07 05:38:30;;;;;;;9.82;4.18;;;;;;;13.77;73.46;101661.09;4896388;29;20052;-74
2021/06/07 05:40:58;;;;;;;4.28;3.17;;;;;;;13.82;73.38;101667.25;4896689;29;20036;-75
2021/06/07 05:43:25;;;;;;;8.20;3.38;;;;;;;13.87;73.21;101664.25;4879571;29;20396;-76
2021/06/07 05:45:53;;;;;;;8.75;3.38;;;;;;;13.92;73.38;101664.06;4896549;29;20407;-75
2021/06/07 05:48:20;;;;;;;6.45;3.13;;;;;;;13.94;73.25;101672.88;4882326;29;20127;-76
2021/06/07 05:50:50;;;;;;;5.57;3.50;;;;;;;14.00;73.39;101659.53;4903154;29;20056;-75
2021/06/07 05:53:19;;;;;;;5.80;3.30;;;;;;;14.04;73.24;101658.50;4883507;29;20111;-75
2021/06/07 05:55:50;;;;;;;7.43;3.67;;;;;;;14.10;72.98;101663.84;4897704;29;20053;-75
2021/06/07 05:58:19;;;;;;;8.45;4.20;;;;;;;14.14;72.86;101662.00;4899414;29;20053;-75
2021/06/07 06:00:49;;;;;;;7.68;4.53;;;;;;;14.20;73.11;101663.38;4895393;29;20079;-75
2021/06/07 06:03:17;;;;;;;7.68;3.65;;;;;;;14.24;72.96;101655.97;4898424;29;20049;-75
2021/06/07 06:05:44;;;;;;;7.70;3.80;;;;;;;14.30;72.91;101657.34;4901151;29;20124;-75
2021/06/07 06:08:11;;;;;;;6.88;3.30;;;;;;;14.33;72.82;101663.06;4895735;29;20051;-75
2021/06/07 06:10:39;;;;;;;7.38;3.90;;;;;;;14.39;72.72;101655.28;4887692;29;20135;-75
2021/06/07 06:13:26;;;;;;;6.70;3.30;;;;;;;14.44;72.39;101652.25;4895772;29;20057;-75
2021/06/07 06:15:54;;;;;;;5.88;3.15;;;;;;;14.45;72.48;101654.72;4896462;29;20048;-75
2021/06/07 06:18:21;;;;;;;7.75;3.25;;;;;;;14.50;72.22;101650.88;4895721;29;20503;-75
2021/06/07 06:20:47;;;;;;;5.22;2.90;;;;;;;14.55;71.86;101651.44;4896156;29;20457;-75
2021/06/07 06:23:14;;;;;;;7.15;2.88;;;;;;;14.59;72.22;101649.56;4897254;29;20400;-75
2021/06/07 06:25:42;;;;;;;6.40;3.28;;;;;;;14.61;72.21;101650.03;4875849;29;20041;-74
2021/06/07 06:28:11;;;;;;;4.57;3.25;;;;;;;14.68;72.07;101652.25;4889859;29;20048;-75
2021/06/07 06:30:38;;;;;;;7.40;3.40;;;;;;;14.73;71.82;101648.41;4893898;29;20055;-76
2021/06/07 06:33:05;;;;;;;5.75;3.00;;;;;;;14.81;71.51;101648.25;4863885;29;20396;-75
2021/06/07 06:35:32;;;;;;;5.32;3.08;;;;;;;14.88;71.35;101651.25;4895608;29;20048;-76
2021/06/07 06:37:59;;;;;;;7.38;3.13;;;;;;;14.99;71.15;101637.63;4896367;29;20051;-75
2021/06/07 06:40:31;;;;;;;7.13;2.58;;;;;;;15.09;70.46;101646.31;4899564;29;20041;-75
2021/06/07 06:42:59;;;;;;;6.45;2.55;;;;;;;15.18;70.47;101649.78;4898972;29;20040;-76
2021/06/07 06:45:28;;;;;;;8.68;2.67;;;;;;;15.24;70.00;101651.16;4899444;29;20045;-75
2021/06/07 06:47:57;;;;;;;5.47;2.75;;;;;;;15.29;69.59;101649.28;4899877;29;20044;-75
2021/06/07 06:50:26;;;;;;;4.07;2.53;;;;;;;15.38;69.19;101658.31;4907722;29;20044;-75
2021/06/07 06:52:53;;;;;;;7.18;2.92;;;;;;;15.48;68.48;101649.47;4899653;29;20048;-74
2021/06/07 06:55:20;;;;;;;8.93;3.25;;;;;;;15.59;68.50;101661.72;4898990;29;20147;-75
2021/06/07 06:57:47;;;;;;;4.00;2.60;;;;;;;15.65;67.69;101657.50;4899023;29;20041;-75
2021/06/07 07:00:14;;;;;;;5.60;2.53;;;;;;;15.71;67.29;101647.69;4893783;29;20083;-74
2021/06/07 07:02:41;;;;;;;3.75;2.67;;;;;;;15.78;67.22;101650.66;4894415;29;20512;-75
2021/06/07 07:05:08;;;;;;;8.25;3.15;;;;;;;15.90;67.18;101647.81;4896568;29;20040;-75
2021/06/07 07:07:35;;;;;;;6.93;2.50;;;;;;;15.98;67.07;101660.78;4896568;29;20053;-77
2021/06/07 07:10:04;;;;;;;7.30;2.50;;;;;;;16.05;66.99;101655.38;4895347;29;20055;-75
2021/06/07 07:12:31;;;;;;;7.47;2.22;;;;;;;16.14;66.30;101647.66;4896247;29;20139;-75
2021/06/07 07:14:58;;;;;;;8.30;3.28;;;;;;;16.21;65.94;101653.41;4895834;29;20512;-75
2021/06/07 07:17:25;;;;;;;6.28;2.50;;;;;;;16.26;65.99;101660.69;4896145;29;20132;-75
2021/06/07 07:19:52;;;;;;;7.30;2.45;;;;;;;16.42;65.68;101653.91;4895980;29;20128;-75
2021/06/07 07:22:21;;;;;;;6.13;2.03;;;;;;;16.53;65.42;101654.19;4880830;29;20561;-76
2021/06/07 07:24:48;;;;;;;7.43;2.38;;;;;;;16.63;65.08;101645.25;4895899;29;20046;-75
2021/06/07 07:27:18;;;;;;;4.65;1.73;;;;;;;16.67;64.23;101654.53;4895263;29;20131;-74
2021/06/07 07:29:46;;;;;;;6.85;2.20;;;;;;;16.64;63.88;101648.88;4893821;29;20052;-74
2021/06/07 07:32:12;;;;;;;4.63;2.03;;;;;;;16.59;63.45;101657.53;4895099;29;20040;-75
2021/06/07 07:34:41;;;;;;;4.53;2.20;;;;;;;16.61;63.17;101653.19;4879367;29;20037;-74
2021/06/07 07:37:09;;;;;;;5.00;1.98;;;;;;;16.74;63.29;101649.09;4895833;29;20153;-74
2021/06/07 07:39:39;;;;;;;6.28;2.00;;;;;;;16.82;63.06;101650.06;4895061;29;20039;-74
2021/06/07 07:42:06;;;;;;;6.47;2.60;;;;;;;16.97;63.43;101646.44;4894899;29;20488;-74
2021/06/07 07:44:36;;;;;;;3.72;1.85;;;;;;;17.19;63.44;101642.88;4896111;29;20048;-75
2021/06/07 07:47:06;;;;;;;6.07;2.20;;;;;;;17.30;63.33;101632.72;4878942;29;20068;-75
2021/06/07 07:49:36;;;;;;;4.75;2.03;;;;;;;17.46;62.79;101624.25;4899274;29;20127;-74
2021/06/07 07:52:05;;;;;;;4.40;1.60;;;;;;;17.74;62.96;101635.22;4881039;29;20059;-74
2021/06/07 07:54:33;;;;;;;7.75;2.20;;;;;;;18.16;62.57;101641.56;4895228;29;20065;-75
2021/06/07 07:57:04;;;;;;;6.55;2.50;;;;;;;18.63;61.74;101633.53;4894745;29;20128;-75
2021/06/07 07:59:30;;;;;;;5.03;1.90;;;;;;;19.09;61.04;101639.75;4892574;29;20052;-75
2021/06/07 08:01:57;;;;;;;5.50;1.80;;;;;;;19.30;59.12;101639.25;4897540;29;20183;-75
2021/06/07 08:04:24;;;;;;;4.35;2.00;;;;;;;19.53;57.38;101644.75;4904329;29;20111;-72
2021/06/07 08:06:51;;;;;;;2.25;1.65;;;;;;;19.75;56.75;101638.16;4896201;29;20109;-73
2021/06/07 08:09:18;;;;;;;3.15;1.60;;;;;;;19.79;55.94;101639.81;4879243;29;20045;-73
2021/06/07 08:11:45;;;;;;;4.88;1.52;;;;;;;19.78;55.40;101643.78;4895371;29;20051;-72
2021/06/07 08:14:12;;;;;;;4.45;1.80;;;;;;;20.09;54.91;101652.94;4893355;29;20053;-72
2021/06/07 08:16:38;;;;;;;6.20;2.33;;;;;;;20.57;53.90;101644.09;4896649;29;20044;-73
2021/06/07 08:19:05;;;;;;;4.07;2.40;;;;;;;21.09;52.70;101650.47;4894285;29;20071;-73
2021/06/07 08:21:32;;;;;;;5.25;1.40;;;;;;;21.70;51.82;101641.03;4878804;29;20060;-73
2021/06/07 08:24:00;;;;;;;6.70;1.98;;;;;;;22.31;50.88;101637.09;4894125;29;20072;-73
2021/06/07 08:26:27;;;;;;;5.45;2.15;;;;;;;22.63;50.16;101640.72;4893599;29;20051;-73
2021/06/07 08:28:54;;;;;;;3.03;1.63;;;;;;;22.80;49.17;101633.41;4893767;29;20045;-73
2021/06/07 08:31:20;;;;;;;3.28;1.70;;;;;;;22.72;48.54;101640.28;4896008;29;20041;-73
2021/06/07 08:33:47;;;;;;;6.63;1.90;;;;;;;22.35;48.40;101637.88;4880242;29;20053;-74
2021/06/07 08:36:14;;;;;;;3.67;1.67;;;;;;;22.06;48.28;101637.06;4895344;29;20056;-73
2021/06/07 08:38:42;;;;;;;6.80;2.05;;;;;;;21.72;47.95;101633.78;4894180;29;20044;-73
2021/06/07 08:41:09;;;;;;;7.80;2.28;;;;;;;21.70;48.30;101635.41;4893727;29;20047;-72
2021/06/07 08:43:36;;;;;;;7.57;2.75;;;;;;;21.71;48.13;101626.53;4894370;29;20414;-72
2021/06/07 08:46:21;;;;;;;6.32;2.10;;;;;;;21.79;48.88;101632.97;4894620;29;20048;-73
2021/06/07 08:48:50;;;;;;;6.93;2.20;;;;;;;22.19;48.44;101629.00;4894410;29;20055;-73
2021/06/07 08:51:17;;;;;;;4.03;2.05;;;;;;;22.23;48.36;101627.81;4875272;29;20504;-72
2021/06/07 08:53:47;;;;;;;6.47;1.83;;;;;;;22.09;47.80;101629.81;4877285;29;20475;-73
2021/06/07 08:56:17;;;;;;;3.92;1.98;;;;;;;22.05;47.46;101623.38;4899936;29;20058;-73
2021/06/07 08:58:47;;;;;;;5.32;1.95;;;;;;;21.91;47.71;101627.00;4864807;29;20044;-73
2021/06/07 09:01:34;;;;;;;5.90;2.00;;;;;;;21.70;47.61;101624.94;4893386;29;20059;-73
2021/06/07 09:04:19;;;;;;;7.65;1.90;;;;;;;21.63;47.21;101621.28;4894205;29;20055;-73
2021/06/07 09:06:50;;;;;;;5.75;1.90;;;;;;;21.48;47.28;101612.00;4876705;29;20040;-73
2021/06/07 09:09:20;;;;;;;7.70;2.20;;;;;;;21.16;47.60;101623.16;4884514;29;20112;-73
2021/06/07 09:11:56;;;;;;;10.30;2.80;;;;;;;20.77;47.67;101633.38;4894944;29;20104;-73
2021/06/07 09:14:32;;;;;;;5.65;2.00;;;;;;;20.54;47.84;101630.03;4891406;29;20043;-72
2021/06/07 09:16:59;;;;;;;3.97;1.35;;;;;;;20.40;48.25;101624.28;4893634;29;20051;-72
2021/06/07 09:19:30;;;;;;;4.13;2.47;;;;;;;20.29;48.85;101629.03;4894661;29;20049;-72
2021/06/07 09:22:20;;;;;;;4.18;1.92;;;;;;;20.21;49.38;101622.50;4892870;29;20055;-72
2021/06/07 09:25:07;;;;;;;5.85;2.38;;;;;;;20.84;49.39;101627.78;4885004;29;20049;-73
2021/06/07 09:27:36;;;;;;;5.03;1.48;;;;;;;21.01;48.44;101612.19;4893033;29;20050;-73
2021/06/07 09:30:33;;;;;;;4.35;1.70;;;;;;;21.56;47.33;101615.63;4893215;29;20041;-72
2021/06/07 09:33:16;;;;;;;6.63;2.38;;;;;;;22.06;48.57;101606.06;4889406;29;20045;-73
2021/06/07 09:35:45;;;;;;;6.38;1.85;;;;;;;22.32;48.81;101608.47;4890438;29;20045;-72
2021/06/07 09:38:12;;;;;;;5.50;1.85;;;;;;;22.87;48.33;101607.97;4893775;29;20119;-73
2021/06/07 09:40:39;;;;;;;5.60;2.10;;;;;;;23.30;47.91;101606.56;4894446;29;20127;-74
2021/06/07 09:43:06;;;;;;;7.35;2.72;;;;;;;23.64;47.28;101613.28;4896012;29;20033;-74
2021/06/07 09:48:17;;;;;;;7.00;2.60;;;;;;;24.13;45.63;101612.16;4891267;29;20072;-72
2021/06/07 09:51:02;;;;;;;4.57;1.75;;;;;;;24.56;44.98;101611.75;4898227;29;20397;-72
2021/06/07 09:53:52;;;;;;;6.35;2.08;;;;;;;24.64;44.41;101614.09;4876414;29;20041;-74
2021/06/07 09:56:20;;;;;;;3.50;2.33;;;;;;;24.71;44.64;101608.34;4878190;29;20048;-73
2021/06/07 09:58:48;;;;;;;4.25;1.80;;;;;;;24.53;44.32;101610.56;4895537;29;20342;-73
2021/06/07 10:01:28;;;;;;;3.25;2.00;;;;;;;24.21;43.98;101607.22;4873957;29;20117;-73
2021/06/07 10:04:00;;;;;;;6.82;2.38;;;;;;;23.87;44.45;101614.75;4887900;29;20104;-74
2021/06/07 10:06:30;;;;;;;6.40;2.55;;;;;;;23.78;44.24;101605.91;4890597;29;20095;-74
2021/06/07 10:08:59;;;;;;;6.40;1.95;;;;;;;23.66;44.49;101609.25;4882023;29;20692;-73
2021/06/07 10:11:30;;;;;;;4.50;2.40;;;;;;;23.64;44.33;101606.84;4888168;29;20056;-73
2021/06/07 10:14:15;;;;;;;5.68;2.78;;;;;;;23.36;43.92;101619.06;4894376;29;20048;-73
2021/06/07 10:17:01;;;;;;;4.53;2.17;;;;;;;22.81;44.47;101615.25;4892133;29;20099;-73
2021/06/07 10:19:59;;;;;;;5.82;2.30;;;;;;;22.19;45.14;101615.72;4897018;29;20494;-73
2021/06/07 10:22:25;;;;;;;3.45;2.03;;;;;;;21.97;45.94;101616.94;4864635;29;20048;-74
2021/06/07 10:24:52;;;;;;;7.78;2.17;;;;;;;21.77;45.71;101615.66;4897206;29;20044;-73
2021/06/07 10:27:19;;;;;;;11.10;3.00;;;;;;;21.53;46.59;101607.97;4895159;29;20044;-72
2021/06/07 10:29:49;;;;;;;5.93;2.03;;;;;;;21.22;46.90;101610.31;4897150;29;20055;-72
2021/06/07 10:32:18;;;;;;;4.57;2.70;;;;;;;21.05;47.22;101602.56;4895877;29;20049;-74
2021/06/07 10:34:51;;;;;;;2.47;2.08;;;;;;;20.84;48.11;101604.44;4898486;29;20442;-72
2021/06/07 10:37:18;;;;;;;8.52;2.35;;;;;;;20.53;48.22;101603.91;4897918;29;20489;-74
2021/06/07 10:39:46;;;;;;;5.28;2.05;;;;;;;20.46;48.42;101600.22;4896604;29;20052;-74
2021/06/07 10:42:30;;;;;;;6.15;3.00;;;;;;;20.51;48.22;101602.69;4897404;29;20401;-73
2021/06/07 10:45:04;;;;;;;7.55;2.65;;;;;;;20.56;48.19;101600.31;4877795;29;20055;-73
2021/06/07 10:47:45;;;;;;;5.75;2.67;;;;;;;20.85;47.83;101595.63;4873726;29;20048;-73
2021/06/07 10:50:29;;;;;;;3.83;2.42;;;;;;;21.13;47.41;101595.78;4907775;29;20083;-73
2021/06/07 10:53:05;;;;;;;7.57;2.47;;;;;;;21.34;47.34;101605.53;4899128;29;20041;-73
2021/06/07 10:55:38;;;;;;;3.33;1.83;;;;;;;21.39;47.03;101602.31;4899456;29;20509;-74
2021/06/07 10:58:06;;;;;;;9.65;2.33;;;;;;;21.38;47.15;101600.69;4882203;29;20045;-73
2021/06/07 11:00:41;;;;;;;5.07;2.10;;;;;;;21.39;47.29;101594.69;4899089;29;20124;-73
2021/06/07 11:03:26;;;;;;;5.95;1.67;;;;;;;21.39;47.29;101602.31;4909222;29;20133;-72
2021/06/07 11:05:57;;;;;;;5.53;2.65;;;;;;;21.34;46.88;101594.25;4899436;29;20045;-73
2021/06/07 11:08:31;;;;;;;4.18;1.80;;;;;;;21.30;47.09;101590.59;4899123;29;20052;-74
2021/06/07 11:11:21;;;;;;;4.35;1.88;;;;;;;21.16;46.86;101588.53;4899396;29;20135;-73
2021/06/07 11:13:50;;;;;;;6.30;2.40;;;;;;;21.14;47.46;101586.13;4899136;29;20072;-73
2021/06/07 11:16:25;;;;;;;3.90;2.10;;;;;;;21.06;46.99;101581.69;4898943;29;20045;-72
2021/06/07 11:19:13;;;;;;;4.63;1.73;;;;;;;20.99;47.62;101589.25;4898400;29;20136;-72
2021/06/07 11:21:56;;;;;;;3.08;1.33;;;;;;;20.99;47.89;101570.38;4893638;29;20492;-73
2021/06/07 11:24:32;;;;;;;5.95;1.70;;;;;;;21.01;48.01;101573.59;4870279;29;20055;-73
2021/06/07 11:27:38;;;;;;;8.02;2.25;;;;;;;21.06;47.51;101567.59;4898529;29;20053;-73
2021/06/07 11:30:14;;;;;;;5.47;2.45;;;;;;;20.98;48.59;101571.56;4898849;29;20049;-73
2021/06/07 11:32:41;;;;;;;6.13;1.70;;;;;;;21.14;48.69;101557.97;4898129;29;20093;-73
2021/06/07 11:35:40;;;;;;;3.40;2.00;;;;;;;21.35;48.28;101559.22;4907204;29;20048;-73
2021/06/07 11:38:58;;;;;;;6.38;2.08;;;;;;;21.56;47.58;101553.63;4892760;29;20104;-73
2021/06/07 11:41:57;;;;;;;5.45;2.25;;;;;;;21.66;47.47;101552.84;4791866;29;20051;-77